Decoded Metar for GEML (MELILLA in SPAIN) (IATA:MLN) | Meteo·Mobile Aviation Weather
aviador You're here:

GEML Decoded Metar

MELILLA in SPAIN
Report Time2019-11-14 10:30:00
UTC Time2019-11-14 10:48:23
Flight Rules mvfr MVFR
Wind280° at 13 Gusting to 23 kt
W.Decomp.*RWY 33: 8.5 kt HW 9.8 kt LCW
Visibility9999 m
Phenomena:N/A
Clouds:Scattered 020 Hf
Broken 028 Hf
Expected CloudBase > 2,000 ft AGL from Temp-Dew spread
Ceiling2,800 ft
Temp17°C (ISA +2)
Dew Point12°C (73% RH)
AAT13.0°C
QNH1012 hPa
Density Alt679 ft
Elevation180 ft
Report Wrong Elevation
Raw Report
GEML 141030Z 28013G23KT 240V320 9999 SCT020 BKN028 17/12 Q1012=

Extra information for GEML:More info

Metar Taf Metar & Taf Last 4 Metars F.Rules Stats Wind Profile Meteogram Temp Stats Airport Information Weather charts Add Link Nearby VenuesMetar ALERT Operation Metar Decoded Social comments